sensor_id;sensor_type;location;lat;lon;timestamp;P1;durP1;ratioP1;P2;durP2;ratioP2
21591;SDS011;10958;50.892;3.992;2022-10-30T00:00:34;8.57;;;4.68;;
21591;SDS011;10958;50.892;3.992;2022-10-30T00:03:03;13.20;;;4.70;;
21591;SDS011;10958;50.892;3.992;2022-10-30T00:05:31;12.52;;;5.32;;
21591;SDS011;10958;50.892;3.992;2022-10-30T00:08:00;15.40;;;5.50;;
21591;SDS011;10958;50.892;3.992;2022-10-30T00:10:26;15.52;;;5.30;;
21591;SDS011;10958;50.892;3.992;2022-10-30T00:12:53;11.18;;;5.68;;
21591;SDS011;10958;50.892;3.992;2022-10-30T00:15:20;12.80;;;4.88;;
21591;SDS011;10958;50.892;3.992;2022-10-30T00:17:46;11.15;;;5.13;;
21591;SDS011;10958;50.892;3.992;2022-10-30T00:20:12;11.15;;;5.22;;
21591;SDS011;10958;50.892;3.992;2022-10-30T00:22:37;12.35;;;5.18;;
21591;SDS011;10958;50.892;3.992;2022-10-30T00:25:03;13.65;;;5.40;;
21591;SDS011;10958;50.892;3.992;2022-10-30T00:27:30;14.38;;;5.13;;
21591;SDS011;10958;50.892;3.992;2022-10-30T00:29:55;15.20;;;4.82;;
21591;SDS011;10958;50.892;3.992;2022-10-30T00:32:21;12.70;;;5.05;;
21591;SDS011;10958;50.892;3.992;2022-10-30T00:34:47;10.07;;;5.00;;
21591;SDS011;10958;50.892;3.992;2022-10-30T00:37:13;11.50;;;5.20;;
21591;SDS011;10958;50.892;3.992;2022-10-30T00:39:38;16.33;;;5.35;;
21591;SDS011;10958;50.892;3.992;2022-10-30T00:42:04;13.73;;;5.22;;
21591;SDS011;10958;50.892;3.992;2022-10-30T00:47:03;14.18;;;5.05;;
21591;SDS011;10958;50.892;3.992;2022-10-30T00:49:56;10.13;;;5.45;;
21591;SDS011;10958;50.892;3.992;2022-10-30T00:52:49;12.25;;;4.95;;
21591;SDS011;10958;50.892;3.992;2022-10-30T00:55:24;15.85;;;4.97;;
21591;SDS011;10958;50.892;3.992;2022-10-30T00:57:55;13.85;;;5.78;;
21591;SDS011;10958;50.892;3.992;2022-10-30T01:00:23;15.93;;;5.93;;
21591;SDS011;10958;50.892;3.992;2022-10-30T01:02:53;14.85;;;5.88;;
21591;SDS011;10958;50.892;3.992;2022-10-30T01:05:21;15.35;;;6.15;;
21591;SDS011;10958;50.892;3.992;2022-10-30T01:07:49;12.13;;;5.15;;
21591;SDS011;10958;50.892;3.992;2022-10-30T01:10:14;13.80;;;5.57;;
21591;SDS011;10958;50.892;3.992;2022-10-30T01:12:41;12.18;;;5.32;;
21591;SDS011;10958;50.892;3.992;2022-10-30T01:15:09;13.00;;;5.18;;
21591;SDS011;10958;50.892;3.992;2022-10-30T01:25:51;13.00;;;5.40;;
21591;SDS011;10958;50.892;3.992;2022-10-30T01:34:04;10.55;;;5.32;;
21591;SDS011;10958;50.892;3.992;2022-10-30T01:39:26;16.25;;;5.95;;
21591;SDS011;10958;50.892;3.992;2022-10-30T01:41:55;11.68;;;6.10;;
21591;SDS011;10958;50.892;3.992;2022-10-30T01:44:23;12.93;;;6.05;;
21591;SDS011;10958;50.892;3.992;2022-10-30T01:47:12;17.23;;;6.50;;
21591;SDS011;10958;50.892;3.992;2022-10-30T01:50:08;13.73;;;6.68;;
21591;SDS011;10958;50.892;3.992;2022-10-30T01:55:46;20.85;;;6.57;;
21591;SDS011;10958;50.892;3.992;2022-10-30T01:58:23;11.70;;;6.53;;
21591;SDS011;10958;50.892;3.992;2022-10-30T02:00:58;16.33;;;6.47;;
21591;SDS011;10958;50.892;3.992;2022-10-30T02:03:27;17.90;;;6.70;;
21591;SDS011;10958;50.892;3.992;2022-10-30T02:05:52;10.40;;;5.50;;
21591;SDS011;10958;50.892;3.992;2022-10-30T02:08:19;14.25;;;6.50;;
21591;SDS011;10958;50.892;3.992;2022-10-30T02:10:46;13.05;;;6.50;;
21591;SDS011;10958;50.892;3.992;2022-10-30T02:13:13;12.30;;;6.53;;
21591;SDS011;10958;50.892;3.992;2022-10-30T02:15:39;14.18;;;6.13;;
21591;SDS011;10958;50.892;3.992;2022-10-30T02:18:06;16.98;;;6.03;;
21591;SDS011;10958;50.892;3.992;2022-10-30T02:20:33;13.07;;;5.65;;
21591;SDS011;10958;50.892;3.992;2022-10-30T02:23:01;17.47;;;6.53;;
21591;SDS011;10958;50.892;3.992;2022-10-30T02:25:27;14.18;;;6.20;;
21591;SDS011;10958;50.892;3.992;2022-10-30T02:27:56;11.35;;;5.32;;
21591;SDS011;10958;50.892;3.992;2022-10-30T02:30:21;23.23;;;6.03;;
21591;SDS011;10958;50.892;3.992;2022-10-30T02:32:49;15.70;;;6.32;;
21591;SDS011;10958;50.892;3.992;2022-10-30T02:35:17;14.35;;;5.47;;
21591;SDS011;10958;50.892;3.992;2022-10-30T02:37:43;15.27;;;5.97;;
21591;SDS011;10958;50.892;3.992;2022-10-30T02:40:11;9.90;;;5.47;;
21591;SDS011;10958;50.892;3.992;2022-10-30T02:42:39;20.83;;;5.70;;
21591;SDS011;10958;50.892;3.992;2022-10-30T02:45:05;16.27;;;6.13;;
21591;SDS011;10958;50.892;3.992;2022-10-30T02:47:31;11.70;;;6.25;;
21591;SDS011;10958;50.892;3.992;2022-10-30T02:49:57;9.38;;;5.88;;
21591;SDS011;10958;50.892;3.992;2022-10-30T02:52:26;13.60;;;5.47;;
21591;SDS011;10958;50.892;3.992;2022-10-30T02:54:51;15.47;;;5.73;;
21591;SDS011;10958;50.892;3.992;2022-10-30T02:57:17;11.80;;;6.13;;
21591;SDS011;10958;50.892;3.992;2022-10-30T02:59:45;17.10;;;6.22;;
21591;SDS011;10958;50.892;3.992;2022-10-30T03:02:11;13.43;;;5.55;;
21591;SDS011;10958;50.892;3.992;2022-10-30T03:04:39;15.55;;;6.70;;
21591;SDS011;10958;50.892;3.992;2022-10-30T03:07:05;12.15;;;5.55;;
21591;SDS011;10958;50.892;3.992;2022-10-30T03:09:30;14.30;;;6.18;;
21591;SDS011;10958;50.892;3.992;2022-10-30T03:11:56;12.75;;;5.88;;
21591;SDS011;10958;50.892;3.992;2022-10-30T03:14:23;13.38;;;6.03;;
21591;SDS011;10958;50.892;3.992;2022-10-30T03:16:48;12.77;;;5.90;;
21591;SDS011;10958;50.892;3.992;2022-10-30T03:19:16;14.30;;;5.65;;
21591;SDS011;10958;50.892;3.992;2022-10-30T03:21:42;16.08;;;6.80;;
21591;SDS011;10958;50.892;3.992;2022-10-30T03:24:11;14.82;;;6.07;;
21591;SDS011;10958;50.892;3.992;2022-10-30T03:26:37;11.20;;;5.95;;
21591;SDS011;10958;50.892;3.992;2022-10-30T03:29:05;19.33;;;6.70;;
21591;SDS011;10958;50.892;3.992;2022-10-30T03:31:31;15.75;;;6.68;;
21591;SDS011;10958;50.892;3.992;2022-10-30T03:33:57;19.00;;;7.18;;
21591;SDS011;10958;50.892;3.992;2022-10-30T03:36:24;14.95;;;6.50;;
21591;SDS011;10958;50.892;3.992;2022-10-30T03:38:50;11.02;;;6.68;;
21591;SDS011;10958;50.892;3.992;2022-10-30T03:41:16;9.63;;;6.00;;
21591;SDS011;10958;50.892;3.992;2022-10-30T03:43:44;20.98;;;7.15;;
21591;SDS011;10958;50.892;3.992;2022-10-30T03:46:10;12.63;;;6.75;;
21591;SDS011;10958;50.892;3.992;2022-10-30T03:48:36;12.45;;;6.28;;
21591;SDS011;10958;50.892;3.992;2022-10-30T03:51:01;16.15;;;6.80;;
21591;SDS011;10958;50.892;3.992;2022-10-30T03:53:27;14.50;;;6.72;;
21591;SDS011;10958;50.892;3.992;2022-10-30T03:55:57;16.52;;;7.18;;
21591;SDS011;10958;50.892;3.992;2022-10-30T03:58:25;16.15;;;7.28;;
21591;SDS011;10958;50.892;3.992;2022-10-30T04:00:52;16.70;;;6.70;;
21591;SDS011;10958;50.892;3.992;2022-10-30T04:03:18;17.25;;;6.82;;
21591;SDS011;10958;50.892;3.992;2022-10-30T04:05:43;16.85;;;6.75;;
21591;SDS011;10958;50.892;3.992;2022-10-30T04:08:10;16.83;;;6.78;;
21591;SDS011;10958;50.892;3.992;2022-10-30T04:10:40;11.73;;;6.50;;
21591;SDS011;10958;50.892;3.992;2022-10-30T04:13:08;16.63;;;6.65;;
21591;SDS011;10958;50.892;3.992;2022-10-30T04:15:35;14.75;;;6.68;;
21591;SDS011;10958;50.892;3.992;2022-10-30T04:18:04;17.33;;;7.00;;
21591;SDS011;10958;50.892;3.992;2022-10-30T04:20:30;18.83;;;7.97;;
21591;SDS011;10958;50.892;3.992;2022-10-30T04:23:00;14.15;;;6.43;;
21591;SDS011;10958;50.892;3.992;2022-10-30T04:25:27;19.05;;;7.43;;
21591;SDS011;10958;50.892;3.992;2022-10-30T04:27:56;13.25;;;6.15;;
21591;SDS011;10958;50.892;3.992;2022-10-30T04:30:22;12.80;;;6.80;;
21591;SDS011;10958;50.892;3.992;2022-10-30T04:32:54;17.48;;;7.15;;
21591;SDS011;10958;50.892;3.992;2022-10-30T04:35:22;19.02;;;7.60;;
21591;SDS011;10958;50.892;3.992;2022-10-30T04:40:19;25.35;;;7.97;;
21591;SDS011;10958;50.892;3.992;2022-10-30T04:42:46;13.48;;;7.05;;
21591;SDS011;10958;50.892;3.992;2022-10-30T04:45:12;16.17;;;7.13;;
21591;SDS011;10958;50.892;3.992;2022-10-30T04:47:38;13.75;;;7.00;;
21591;SDS011;10958;50.892;3.992;2022-10-30T04:50:04;16.67;;;6.82;;
21591;SDS011;10958;50.892;3.992;2022-10-30T04:52:29;15.40;;;6.95;;
21591;SDS011;10958;50.892;3.992;2022-10-30T04:54:58;13.50;;;6.97;;
21591;SDS011;10958;50.892;3.992;2022-10-30T04:57:26;14.20;;;6.72;;
21591;SDS011;10958;50.892;3.992;2022-10-30T04:59:55;24.13;;;8.02;;
21591;SDS011;10958;50.892;3.992;2022-10-30T05:02:22;14.70;;;6.70;;
21591;SDS011;10958;50.892;3.992;2022-10-30T05:04:48;14.73;;;6.97;;
21591;SDS011;10958;50.892;3.992;2022-10-30T05:07:14;15.48;;;7.10;;
21591;SDS011;10958;50.892;3.992;2022-10-30T05:09:42;14.70;;;6.88;;
21591;SDS011;10958;50.892;3.992;2022-10-30T05:12:10;17.15;;;7.45;;
21591;SDS011;10958;50.892;3.992;2022-10-30T05:14:36;18.50;;;7.45;;
21591;SDS011;10958;50.892;3.992;2022-10-30T05:17:02;16.50;;;7.22;;
21591;SDS011;10958;50.892;3.992;2022-10-30T05:19:28;18.30;;;7.10;;
21591;SDS011;10958;50.892;3.992;2022-10-30T05:21:56;15.85;;;7.20;;
21591;SDS011;10958;50.892;3.992;2022-10-30T05:24:21;17.20;;;7.30;;
21591;SDS011;10958;50.892;3.992;2022-10-30T05:26:47;20.05;;;8.05;;
21591;SDS011;10958;50.892;3.992;2022-10-30T05:29:13;15.07;;;6.85;;
21591;SDS011;10958;50.892;3.992;2022-10-30T05:31:39;14.93;;;7.57;;
21591;SDS011;10958;50.892;3.992;2022-10-30T05:34:04;14.25;;;7.35;;
21591;SDS011;10958;50.892;3.992;2022-10-30T05:36:31;21.98;;;7.32;;
21591;SDS011;10958;50.892;3.992;2022-10-30T05:38:56;14.43;;;7.38;;
21591;SDS011;10958;50.892;3.992;2022-10-30T05:41:22;16.15;;;7.38;;
21591;SDS011;10958;50.892;3.992;2022-10-30T05:43:47;16.33;;;7.65;;
21591;SDS011;10958;50.892;3.992;2022-10-30T05:46:13;15.13;;;7.50;;
21591;SDS011;10958;50.892;3.992;2022-10-30T05:48:39;17.75;;;7.93;;
21591;SDS011;10958;50.892;3.992;2022-10-30T05:51:05;17.80;;;7.32;;
21591;SDS011;10958;50.892;3.992;2022-10-30T05:53:34;19.98;;;7.38;;
21591;SDS011;10958;50.892;3.992;2022-10-30T05:56:01;19.25;;;8.60;;
21591;SDS011;10958;50.892;3.992;2022-10-30T05:58:26;21.92;;;7.68;;
21591;SDS011;10958;50.892;3.992;2022-10-30T06:00:52;14.80;;;8.18;;
21591;SDS011;10958;50.892;3.992;2022-10-30T06:03:20;23.10;;;9.00;;
21591;SDS011;10958;50.892;3.992;2022-10-30T06:05:46;22.85;;;7.70;;
21591;SDS011;10958;50.892;3.992;2022-10-30T06:08:12;14.32;;;7.93;;
21591;SDS011;10958;50.892;3.992;2022-10-30T06:10:40;17.40;;;7.63;;
21591;SDS011;10958;50.892;3.992;2022-10-30T06:13:06;19.60;;;8.68;;
21591;SDS011;10958;50.892;3.992;2022-10-30T06:15:33;16.90;;;9.02;;
21591;SDS011;10958;50.892;3.992;2022-10-30T06:17:59;17.98;;;7.57;;
21591;SDS011;10958;50.892;3.992;2022-10-30T06:20:26;16.60;;;7.47;;
21591;SDS011;10958;50.892;3.992;2022-10-30T06:22:57;21.00;;;7.80;;
21591;SDS011;10958;50.892;3.992;2022-10-30T06:25:29;16.65;;;7.75;;
21591;SDS011;10958;50.892;3.992;2022-10-30T06:27:57;16.42;;;7.53;;
21591;SDS011;10958;50.892;3.992;2022-10-30T06:30:24;19.10;;;8.77;;
21591;SDS011;10958;50.892;3.992;2022-10-30T06:32:57;16.77;;;8.00;;
21591;SDS011;10958;50.892;3.992;2022-10-30T06:35:26;19.17;;;7.78;;
21591;SDS011;10958;50.892;3.992;2022-10-30T06:37:53;19.45;;;8.45;;
21591;SDS011;10958;50.892;3.992;2022-10-30T06:40:20;18.13;;;8.43;;
21591;SDS011;10958;50.892;3.992;2022-10-30T06:42:48;19.13;;;8.50;;
21591;SDS011;10958;50.892;3.992;2022-10-30T06:45:16;16.45;;;8.30;;
21591;SDS011;10958;50.892;3.992;2022-10-30T06:47:42;18.90;;;7.97;;
21591;SDS011;10958;50.892;3.992;2022-10-30T06:50:09;20.13;;;7.53;;
21591;SDS011;10958;50.892;3.992;2022-10-30T06:52:40;19.17;;;7.65;;
21591;SDS011;10958;50.892;3.992;2022-10-30T06:55:06;18.00;;;8.35;;
21591;SDS011;10958;50.892;3.992;2022-10-30T06:57:32;16.00;;;7.15;;
21591;SDS011;10958;50.892;3.992;2022-10-30T07:00:01;18.05;;;7.40;;
21591;SDS011;10958;50.892;3.992;2022-10-30T07:02:27;15.10;;;7.18;;
21591;SDS011;10958;50.892;3.992;2022-10-30T07:04:52;17.52;;;8.18;;
21591;SDS011;10958;50.892;3.992;2022-10-30T07:07:18;14.93;;;7.68;;
21591;SDS011;10958;50.892;3.992;2022-10-30T07:09:44;16.98;;;8.02;;
21591;SDS011;10958;50.892;3.992;2022-10-30T07:12:30;13.02;;;7.43;;
21591;SDS011;10958;50.892;3.992;2022-10-30T07:14:55;16.85;;;7.32;;
21591;SDS011;10958;50.892;3.992;2022-10-30T07:17:21;17.25;;;7.30;;
21591;SDS011;10958;50.892;3.992;2022-10-30T07:19:47;17.88;;;8.10;;
21591;SDS011;10958;50.892;3.992;2022-10-30T07:22:13;19.67;;;7.28;;
21591;SDS011;10958;50.892;3.992;2022-10-30T07:24:42;19.50;;;7.25;;
21591;SDS011;10958;50.892;3.992;2022-10-30T07:27:08;15.30;;;6.93;;
21591;SDS011;10958;50.892;3.992;2022-10-30T07:29:33;20.13;;;6.40;;
21591;SDS011;10958;50.892;3.992;2022-10-30T07:31:59;17.58;;;6.97;;
21591;SDS011;10958;50.892;3.992;2022-10-30T07:34:30;13.77;;;6.50;;
21591;SDS011;10958;50.892;3.992;2022-10-30T07:39:22;17.45;;;6.47;;
21591;SDS011;10958;50.892;3.992;2022-10-30T07:41:50;12.63;;;6.37;;
21591;SDS011;10958;50.892;3.992;2022-10-30T07:44:16;29.17;;;13.50;;
21591;SDS011;10958;50.892;3.992;2022-10-30T07:46:44;17.60;;;7.30;;
21591;SDS011;10958;50.892;3.992;2022-10-30T07:49:10;18.95;;;7.20;;
21591;SDS011;10958;50.892;3.992;2022-10-30T07:51:35;13.55;;;6.30;;
21591;SDS011;10958;50.892;3.992;2022-10-30T07:54:01;15.23;;;5.75;;
21591;SDS011;10958;50.892;3.992;2022-10-30T07:56:27;18.80;;;6.10;;
21591;SDS011;10958;50.892;3.992;2022-10-30T07:58:52;13.20;;;6.18;;
21591;SDS011;10958;50.892;3.992;2022-10-30T08:01:18;14.90;;;6.97;;
21591;SDS011;10958;50.892;3.992;2022-10-30T08:03:44;15.30;;;6.43;;
21591;SDS011;10958;50.892;3.992;2022-10-30T08:06:09;16.90;;;6.60;;
21591;SDS011;10958;50.892;3.992;2022-10-30T08:08:35;16.73;;;6.68;;
21591;SDS011;10958;50.892;3.992;2022-10-30T08:11:01;13.95;;;7.30;;
21591;SDS011;10958;50.892;3.992;2022-10-30T08:13:26;15.50;;;6.00;;
21591;SDS011;10958;50.892;3.992;2022-10-30T08:15:52;14.65;;;6.30;;
21591;SDS011;10958;50.892;3.992;2022-10-30T08:18:18;13.68;;;5.93;;
21591;SDS011;10958;50.892;3.992;2022-10-30T08:20:47;16.67;;;6.18;;
21591;SDS011;10958;50.892;3.992;2022-10-30T08:23:15;14.95;;;5.97;;
21591;SDS011;10958;50.892;3.992;2022-10-30T08:25:43;16.90;;;6.60;;
21591;SDS011;10958;50.892;3.992;2022-10-30T08:28:09;17.20;;;7.03;;
21591;SDS011;10958;50.892;3.992;2022-10-30T08:30:35;16.65;;;6.07;;
21591;SDS011;10958;50.892;3.992;2022-10-30T08:33:06;10.10;;;5.80;;
21591;SDS011;10958;50.892;3.992;2022-10-30T08:35:35;12.95;;;5.65;;
21591;SDS011;10958;50.892;3.992;2022-10-30T08:38:03;15.57;;;5.65;;
21591;SDS011;10958;50.892;3.992;2022-10-30T08:40:29;17.77;;;5.97;;
21591;SDS011;10958;50.892;3.992;2022-10-30T08:42:55;13.57;;;5.72;;
21591;SDS011;10958;50.892;3.992;2022-10-30T08:45:23;15.85;;;5.00;;
21591;SDS011;10958;50.892;3.992;2022-10-30T08:47:56;14.02;;;4.93;;
21591;SDS011;10958;50.892;3.992;2022-10-30T08:50:23;14.77;;;4.68;;
21591;SDS011;10958;50.892;3.992;2022-10-30T08:52:49;13.20;;;4.68;;
21591;SDS011;10958;50.892;3.992;2022-10-30T08:55:15;9.38;;;4.47;;
21591;SDS011;10958;50.892;3.992;2022-10-30T08:57:44;13.00;;;4.50;;
21591;SDS011;10958;50.892;3.992;2022-10-30T09:00:10;10.02;;;4.50;;
21591;SDS011;10958;50.892;3.992;2022-10-30T09:02:36;11.57;;;4.82;;
21591;SDS011;10958;50.892;3.992;2022-10-30T09:05:03;15.75;;;4.47;;
21591;SDS011;10958;50.892;3.992;2022-10-30T09:07:30;14.50;;;4.75;;
21591;SDS011;10958;50.892;3.992;2022-10-30T09:09:56;10.88;;;4.68;;
21591;SDS011;10958;50.892;3.992;2022-10-30T09:12:22;17.67;;;5.22;;
21591;SDS011;10958;50.892;3.992;2022-10-30T09:14:47;12.63;;;5.25;;
21591;SDS011;10958;50.892;3.992;2022-10-30T09:17:14;12.05;;;5.57;;
21591;SDS011;10958;50.892;3.992;2022-10-30T09:19:42;14.80;;;5.13;;
21591;SDS011;10958;50.892;3.992;2022-10-30T09:22:10;12.50;;;5.03;;
21591;SDS011;10958;50.892;3.992;2022-10-30T09:24:36;13.25;;;4.85;;
21591;SDS011;10958;50.892;3.992;2022-10-30T09:27:04;16.83;;;4.55;;
21591;SDS011;10958;50.892;3.992;2022-10-30T09:29:32;13.95;;;4.75;;
21591;SDS011;10958;50.892;3.992;2022-10-30T09:31:58;10.75;;;4.80;;
21591;SDS011;10958;50.892;3.992;2022-10-30T09:34:28;15.52;;;5.35;;
21591;SDS011;10958;50.892;3.992;2022-10-30T09:37:03;11.05;;;4.88;;
21591;SDS011;10958;50.892;3.992;2022-10-30T09:39:32;11.95;;;4.95;;
21591;SDS011;10958;50.892;3.992;2022-10-30T09:46:05;16.77;;;5.78;;
21591;SDS011;10958;50.892;3.992;2022-10-30T09:56:22;11.88;;;4.72;;
21591;SDS011;10958;50.892;3.992;2022-10-30T10:12:10;14.38;;;6.05;;
21591;SDS011;10958;50.892;3.992;2022-10-30T10:51:28;19.48;;;5.68;;
21591;SDS011;10958;50.892;3.992;2022-10-30T10:54:03;15.40;;;5.30;;
21591;SDS011;10958;50.892;3.992;2022-10-30T10:56:31;18.35;;;5.63;;
21591;SDS011;10958;50.892;3.992;2022-10-30T10:59:03;11.85;;;5.60;;
21591;SDS011;10958;50.892;3.992;2022-10-30T11:06:28;19.05;;;6.25;;
21591;SDS011;10958;50.892;3.992;2022-10-30T11:09:09;14.32;;;5.90;;
21591;SDS011;10958;50.892;3.992;2022-10-30T11:11:45;12.80;;;6.10;;
21591;SDS011;10958;50.892;3.992;2022-10-30T11:14:15;12.73;;;5.93;;
21591;SDS011;10958;50.892;3.992;2022-10-30T11:19:23;11.32;;;5.75;;
21591;SDS011;10958;50.892;3.992;2022-10-30T11:21:52;14.77;;;5.90;;
21591;SDS011;10958;50.892;3.992;2022-10-30T11:27:14;16.20;;;6.70;;
21591;SDS011;10958;50.892;3.992;2022-10-30T11:30:00;14.38;;;6.13;;
21591;SDS011;10958;50.892;3.992;2022-10-30T11:32:30;17.25;;;6.70;;
21591;SDS011;10958;50.892;3.992;2022-10-30T11:35:02;16.58;;;5.90;;
21591;SDS011;10958;50.892;3.992;2022-10-30T11:37:37;15.38;;;5.82;;
21591;SDS011;10958;50.892;3.992;2022-10-30T11:42:38;16.60;;;6.65;;
21591;SDS011;10958;50.892;3.992;2022-10-30T11:45:18;9.85;;;6.40;;
21591;SDS011;10958;50.892;3.992;2022-10-30T11:47:50;13.05;;;6.10;;
21591;SDS011;10958;50.892;3.992;2022-10-30T11:50:31;18.25;;;6.05;;
21591;SDS011;10958;50.892;3.992;2022-10-30T11:52:59;17.20;;;6.20;;
21591;SDS011;10958;50.892;3.992;2022-10-30T11:55:40;15.35;;;6.38;;
21591;SDS011;10958;50.892;3.992;2022-10-30T11:58:19;12.70;;;6.00;;
21591;SDS011;10958;50.892;3.992;2022-10-30T12:01:05;13.30;;;6.57;;
21591;SDS011;10958;50.892;3.992;2022-10-30T12:03:39;16.10;;;6.72;;
21591;SDS011;10958;50.892;3.992;2022-10-30T12:06:16;12.27;;;6.10;;
21591;SDS011;10958;50.892;3.992;2022-10-30T12:11:41;14.90;;;6.35;;
21591;SDS011;10958;50.892;3.992;2022-10-30T12:16:47;11.85;;;5.80;;
21591;SDS011;10958;50.892;3.992;2022-10-30T12:19:15;15.10;;;6.18;;
21591;SDS011;10958;50.892;3.992;2022-10-30T12:21:44;15.65;;;6.18;;
21591;SDS011;10958;50.892;3.992;2022-10-30T12:24:22;15.65;;;6.25;;
21591;SDS011;10958;50.892;3.992;2022-10-30T12:26:55;15.38;;;6.18;;
21591;SDS011;10958;50.892;3.992;2022-10-30T12:29:26;15.73;;;6.63;;
21591;SDS011;10958;50.892;3.992;2022-10-30T12:32:05;13.00;;;6.82;;
21591;SDS011;10958;50.892;3.992;2022-10-30T12:37:42;12.73;;;6.15;;
21591;SDS011;10958;50.892;3.992;2022-10-30T12:40:22;16.55;;;6.45;;
21591;SDS011;10958;50.892;3.992;2022-10-30T12:42:54;10.60;;;5.80;;
21591;SDS011;10958;50.892;3.992;2022-10-30T12:45:42;15.52;;;6.45;;
21591;SDS011;10958;50.892;3.992;2022-10-30T12:48:20;15.23;;;7.13;;
21591;SDS011;10958;50.892;3.992;2022-10-30T12:51:09;12.70;;;6.45;;
21591;SDS011;10958;50.892;3.992;2022-10-30T12:53:49;19.40;;;9.60;;
21591;SDS011;10958;50.892;3.992;2022-10-30T12:56:45;16.83;;;6.75;;
21591;SDS011;10958;50.892;3.992;2022-10-30T13:01:56;14.70;;;6.05;;
21591;SDS011;10958;50.892;3.992;2022-10-30T13:04:37;16.15;;;6.50;;
21591;SDS011;10958;50.892;3.992;2022-10-30T13:07:29;15.73;;;6.45;;
21591;SDS011;10958;50.892;3.992;2022-10-30T13:10:15;17.70;;;7.43;;
21591;SDS011;10958;50.892;3.992;2022-10-30T13:12:52;22.17;;;8.00;;
21591;SDS011;10958;50.892;3.992;2022-10-30T13:15:24;18.00;;;9.05;;
21591;SDS011;10958;50.892;3.992;2022-10-30T13:18:05;12.65;;;7.43;;
21591;SDS011;10958;50.892;3.992;2022-10-30T13:31:37;28.27;;;9.32;;
21591;SDS011;10958;50.892;3.992;2022-10-30T13:34:21;19.60;;;7.82;;
21591;SDS011;10958;50.892;3.992;2022-10-30T13:37:04;13.77;;;7.10;;
21591;SDS011;10958;50.892;3.992;2022-10-30T13:48:08;18.05;;;7.50;;
21591;SDS011;10958;50.892;3.992;2022-10-30T13:53:24;15.82;;;6.68;;
21591;SDS011;10958;50.892;3.992;2022-10-30T13:55:53;18.50;;;7.60;;
21591;SDS011;10958;50.892;3.992;2022-10-30T14:03:31;16.08;;;7.32;;
21591;SDS011;10958;50.892;3.992;2022-10-30T14:06:07;16.27;;;6.70;;
21591;SDS011;10958;50.892;3.992;2022-10-30T14:08:42;20.00;;;7.82;;
21591;SDS011;10958;50.892;3.992;2022-10-30T14:11:10;19.27;;;6.53;;
21591;SDS011;10958;50.892;3.992;2022-10-30T14:19:11;11.43;;;5.72;;
21591;SDS011;10958;50.892;3.992;2022-10-30T14:24:10;12.90;;;6.22;;
21591;SDS011;10958;50.892;3.992;2022-10-30T14:26:37;16.77;;;6.72;;
21591;SDS011;10958;50.892;3.992;2022-10-30T14:39:51;13.02;;;7.13;;
21591;SDS011;10958;50.892;3.992;2022-10-30T14:42:24;12.10;;;5.53;;
21591;SDS011;10958;50.892;3.992;2022-10-30T14:45:12;9.52;;;4.80;;
21591;SDS011;10958;50.892;3.992;2022-10-30T14:56:40;10.23;;;4.40;;
21591;SDS011;10958;50.892;3.992;2022-10-30T15:01:53;10.23;;;4.38;;
21591;SDS011;10958;50.892;3.992;2022-10-30T15:04:38;8.60;;;3.15;;
21591;SDS011;10958;50.892;3.992;2022-10-30T15:07:17;7.70;;;2.72;;
21591;SDS011;10958;50.892;3.992;2022-10-30T15:15:14;8.05;;;1.70;;
21591;SDS011;10958;50.892;3.992;2022-10-30T15:17:48;5.78;;;1.65;;
21591;SDS011;10958;50.892;3.992;2022-10-30T15:20:20;6.07;;;1.70;;
21591;SDS011;10958;50.892;3.992;2022-10-30T15:22:56;6.20;;;1.55;;
21591;SDS011;10958;50.892;3.992;2022-10-30T15:25:28;3.78;;;1.30;;
21591;SDS011;10958;50.892;3.992;2022-10-30T15:27:58;9.32;;;1.90;;
21591;SDS011;10958;50.892;3.992;2022-10-30T15:30:25;8.75;;;2.20;;
21591;SDS011;10958;50.892;3.992;2022-10-30T15:32:51;10.00;;;2.08;;
21591;SDS011;10958;50.892;3.992;2022-10-30T15:35:20;7.80;;;1.85;;
21591;SDS011;10958;50.892;3.992;2022-10-30T15:38:06;9.77;;;2.22;;
21591;SDS011;10958;50.892;3.992;2022-10-30T15:40:34;13.40;;;2.10;;
21591;SDS011;10958;50.892;3.992;2022-10-30T15:43:02;5.82;;;2.50;;
21591;SDS011;10958;50.892;3.992;2022-10-30T15:45:34;12.90;;;5.63;;
21591;SDS011;10958;50.892;3.992;2022-10-30T15:51:00;10.23;;;3.00;;
21591;SDS011;10958;50.892;3.992;2022-10-30T15:56:09;8.88;;;2.33;;
21591;SDS011;10958;50.892;3.992;2022-10-30T15:58:54;8.63;;;2.33;;
21591;SDS011;10958;50.892;3.992;2022-10-30T16:01:30;11.65;;;2.55;;
21591;SDS011;10958;50.892;3.992;2022-10-30T16:03:58;14.77;;;4.93;;
21591;SDS011;10958;50.892;3.992;2022-10-30T16:06:31;12.23;;;5.35;;
21591;SDS011;10958;50.892;3.992;2022-10-30T16:08:57;19.23;;;5.70;;
21591;SDS011;10958;50.892;3.992;2022-10-30T16:11:23;13.05;;;4.63;;
21591;SDS011;10958;50.892;3.992;2022-10-30T16:13:50;16.53;;;5.87;;
21591;SDS011;10958;50.892;3.992;2022-10-30T16:18:56;15.55;;;5.20;;
21591;SDS011;10958;50.892;3.992;2022-10-30T16:21:26;16.80;;;8.05;;
21591;SDS011;10958;50.892;3.992;2022-10-30T16:23:57;10.00;;;4.40;;
21591;SDS011;10958;50.892;3.992;2022-10-30T16:26:32;11.88;;;7.35;;
21591;SDS011;10958;50.892;3.992;2022-10-30T16:31:37;10.43;;;3.03;;
21591;SDS011;10958;50.892;3.992;2022-10-30T16:34:08;15.63;;;7.53;;
21591;SDS011;10958;50.892;3.992;2022-10-30T16:36:39;15.77;;;6.10;;
21591;SDS011;10958;50.892;3.992;2022-10-30T16:39:10;9.10;;;3.92;;
21591;SDS011;10958;50.892;3.992;2022-10-30T16:41:40;7.22;;;3.58;;
21591;SDS011;10958;50.892;3.992;2022-10-30T16:51:40;12.70;;;4.90;;
21591;SDS011;10958;50.892;3.992;2022-10-30T16:54:15;14.57;;;4.75;;
21591;SDS011;10958;50.892;3.992;2022-10-30T16:56:43;12.13;;;4.97;;
21591;SDS011;10958;50.892;3.992;2022-10-30T16:59:15;12.63;;;5.75;;
21591;SDS011;10958;50.892;3.992;2022-10-30T17:01:54;11.45;;;4.43;;
21591;SDS011;10958;50.892;3.992;2022-10-30T17:04:22;10.90;;;4.18;;
21591;SDS011;10958;50.892;3.992;2022-10-30T17:06:49;11.65;;;3.90;;
21591;SDS011;10958;50.892;3.992;2022-10-30T17:09:26;13.77;;;4.18;;
21591;SDS011;10958;50.892;3.992;2022-10-30T17:12:03;9.57;;;3.75;;
21591;SDS011;10958;50.892;3.992;2022-10-30T17:14:52;9.65;;;3.78;;
21591;SDS011;10958;50.892;3.992;2022-10-30T17:17:42;9.73;;;3.85;;
21591;SDS011;10958;50.892;3.992;2022-10-30T17:20:12;8.45;;;3.85;;
21591;SDS011;10958;50.892;3.992;2022-10-30T17:23:03;12.02;;;4.00;;
21591;SDS011;10958;50.892;3.992;2022-10-30T17:25:40;10.30;;;3.83;;
21591;SDS011;10958;50.892;3.992;2022-10-30T17:28:06;11.30;;;4.80;;
21591;SDS011;10958;50.892;3.992;2022-10-30T17:30:48;10.43;;;4.63;;
21591;SDS011;10958;50.892;3.992;2022-10-30T17:35:54;13.65;;;4.90;;
21591;SDS011;10958;50.892;3.992;2022-10-30T17:38:22;12.25;;;4.78;;
21591;SDS011;10958;50.892;3.992;2022-10-30T17:40:50;12.27;;;5.20;;
21591;SDS011;10958;50.892;3.992;2022-10-30T17:43:19;10.77;;;4.80;;
21591;SDS011;10958;50.892;3.992;2022-10-30T17:45:52;12.30;;;4.70;;
21591;SDS011;10958;50.892;3.992;2022-10-30T17:48:18;9.77;;;5.00;;
21591;SDS011;10958;50.892;3.992;2022-10-30T17:50:47;10.23;;;4.95;;
21591;SDS011;10958;50.892;3.992;2022-10-30T17:53:17;10.90;;;4.90;;
21591;SDS011;10958;50.892;3.992;2022-10-30T17:55:48;10.68;;;5.93;;
21591;SDS011;10958;50.892;3.992;2022-10-30T17:58:26;11.43;;;6.22;;
21591;SDS011;10958;50.892;3.992;2022-10-30T18:00:52;9.88;;;5.47;;
21591;SDS011;10958;50.892;3.992;2022-10-30T18:03:18;14.40;;;5.72;;
21591;SDS011;10958;50.892;3.992;2022-10-30T18:05:45;9.48;;;6.60;;
21591;SDS011;10958;50.892;3.992;2022-10-30T18:08:12;10.57;;;5.60;;